sensor_id;sensor_type;location;lat;lon;timestamp;temperature;humidity
13970;DHT22;7057;49.984;8.404;2022-09-30T00:00:46;7.30;99.90
13970;DHT22;7057;49.984;8.404;2022-09-30T00:03:13;7.20;99.90
13970;DHT22;7057;49.984;8.404;2022-09-30T00:05:41;7.20;99.90
13970;DHT22;7057;49.984;8.404;2022-09-30T00:08:08;7.20;99.90
13970;DHT22;7057;49.984;8.404;2022-09-30T00:10:36;7.20;99.90
13970;DHT22;7057;49.984;8.404;2022-09-30T00:13:03;7.20;99.90
13970;DHT22;7057;49.984;8.404;2022-09-30T00:15:30;7.10;99.90
13970;DHT22;7057;49.984;8.404;2022-09-30T00:17:58;7.10;99.90
13970;DHT22;7057;49.984;8.404;2022-09-30T00:20:25;7.00;99.90
13970;DHT22;7057;49.984;8.404;2022-09-30T00:22:53;7.00;99.90
13970;DHT22;7057;49.984;8.404;2022-09-30T00:25:20;7.00;99.90
13970;DHT22;7057;49.984;8.404;2022-09-30T00:27:48;7.00;99.90
13970;DHT22;7057;49.984;8.404;2022-09-30T00:30:15;7.00;99.90
13970;DHT22;7057;49.984;8.404;2022-09-30T00:32:42;6.90;99.90
13970;DHT22;7057;49.984;8.404;2022-09-30T00:35:10;6.90;99.90
13970;DHT22;7057;49.984;8.404;2022-09-30T00:37:37;6.80;99.90
13970;DHT22;7057;49.984;8.404;2022-09-30T00:40:07;6.80;99.90
13970;DHT22;7057;49.984;8.404;2022-09-30T00:42:39;6.80;99.90
13970;DHT22;7057;49.984;8.404;2022-09-30T00:45:09;6.80;99.90
13970;DHT22;7057;49.984;8.404;2022-09-30T00:47:43;6.70;99.90
13970;DHT22;7057;49.984;8.404;2022-09-30T00:50:28;6.70;99.90
13970;DHT22;7057;49.984;8.404;2022-09-30T00:53:03;6.70;99.90
13970;DHT22;7057;49.984;8.404;2022-09-30T00:55:38;6.70;99.90
13970;DHT22;7057;49.984;8.404;2022-09-30T00:58:08;6.70;99.90
13970;DHT22;7057;49.984;8.404;2022-09-30T01:00:37;6.70;99.90
13970;DHT22;7057;49.984;8.404;2022-09-30T01:03:05;6.80;99.90
13970;DHT22;7057;49.984;8.404;2022-09-30T01:05:33;6.80;99.90
13970;DHT22;7057;49.984;8.404;2022-09-30T01:08:03;6.80;99.90
13970;DHT22;7057;49.984;8.404;2022-09-30T01:10:31;6.70;99.90
13970;DHT22;7057;49.984;8.404;2022-09-30T01:13:00;6.70;99.90
13970;DHT22;7057;49.984;8.404;2022-09-30T01:15:38;6.70;99.90
13970;DHT22;7057;49.984;8.404;2022-09-30T01:18:13;6.70;99.90
13970;DHT22;7057;49.984;8.404;2022-09-30T01:20:59;6.70;99.90
13970;DHT22;7057;49.984;8.404;2022-09-30T01:24:07;6.70;99.90
13970;DHT22;7057;49.984;8.404;2022-09-30T01:26:57;6.70;99.90
13970;DHT22;7057;49.984;8.404;2022-09-30T01:30:02;6.60;99.90
13970;DHT22;7057;49.984;8.404;2022-09-30T01:32:53;6.60;99.90
13970;DHT22;7057;49.984;8.404;2022-09-30T01:35:35;6.50;99.90
13970;DHT22;7057;49.984;8.404;2022-09-30T01:38:12;6.40;99.90
13970;DHT22;7057;49.984;8.404;2022-09-30T01:40:44;6.50;99.90
13970;DHT22;7057;49.984;8.404;2022-09-30T01:43:22;6.40;99.90
13970;DHT22;7057;49.984;8.404;2022-09-30T01:45:56;6.50;99.90
13970;DHT22;7057;49.984;8.404;2022-09-30T01:48:33;6.40;99.90
13970;DHT22;7057;49.984;8.404;2022-09-30T01:51:04;6.40;99.90
13970;DHT22;7057;49.984;8.404;2022-09-30T01:53:38;6.40;99.90
13970;DHT22;7057;49.984;8.404;2022-09-30T01:56:12;6.40;99.90
13970;DHT22;7057;49.984;8.404;2022-09-30T01:58:44;6.40;99.90
13970;DHT22;7057;49.984;8.404;2022-09-30T02:01:17;6.50;99.90
13970;DHT22;7057;49.984;8.404;2022-09-30T02:03:48;6.40;99.90
13970;DHT22;7057;49.984;8.404;2022-09-30T02:06:20;6.40;99.90
13970;DHT22;7057;49.984;8.404;2022-09-30T02:08:52;6.40;99.90
13970;DHT22;7057;49.984;8.404;2022-09-30T02:11:23;6.40;99.90
13970;DHT22;7057;49.984;8.404;2022-09-30T02:13:54;6.40;99.90
13970;DHT22;7057;49.984;8.404;2022-09-30T02:16:25;6.40;99.90
13970;DHT22;7057;49.984;8.404;2022-09-30T02:18:59;6.40;99.90
13970;DHT22;7057;49.984;8.404;2022-09-30T02:21:33;5.90;99.90
13970;DHT22;7057;49.984;8.404;2022-09-30T02:24:04;6.40;99.90
13970;DHT22;7057;49.984;8.404;2022-09-30T02:26:36;6.40;99.90
13970;DHT22;7057;49.984;8.404;2022-09-30T02:29:06;6.70;99.90
13970;DHT22;7057;49.984;8.404;2022-09-30T02:31:37;6.40;99.90
13970;DHT22;7057;49.984;8.404;2022-09-30T02:34:10;6.50;99.90
13970;DHT22;7057;49.984;8.404;2022-09-30T02:36:42;6.40;99.90
13970;DHT22;7057;49.984;8.404;2022-09-30T02:39:14;6.40;99.90
13970;DHT22;7057;49.984;8.404;2022-09-30T02:41:49;6.40;99.90
13970;DHT22;7057;49.984;8.404;2022-09-30T02:44:17;6.40;99.90
13970;DHT22;7057;49.984;8.404;2022-09-30T02:46:52;6.40;99.90
13970;DHT22;7057;49.984;8.404;2022-09-30T02:49:27;6.40;99.90
13970;DHT22;7057;49.984;8.404;2022-09-30T02:52:07;6.40;99.90
13970;DHT22;7057;49.984;8.404;2022-09-30T02:54:46;6.40;99.90
13970;DHT22;7057;49.984;8.404;2022-09-30T02:57:17;6.40;99.90
13970;DHT22;7057;49.984;8.404;2022-09-30T02:59:47;6.40;99.90
13970;DHT22;7057;49.984;8.404;2022-09-30T03:02:16;6.40;99.90
13970;DHT22;7057;49.984;8.404;2022-09-30T03:04:45;6.30;99.90
13970;DHT22;7057;49.984;8.404;2022-09-30T03:07:13;6.30;99.90
13970;DHT22;7057;49.984;8.404;2022-09-30T03:09:41;6.30;99.90
13970;DHT22;7057;49.984;8.404;2022-09-30T03:12:15;6.30;99.90
13970;DHT22;7057;49.984;8.404;2022-09-30T03:15:07;6.30;99.90
13970;DHT22;7057;49.984;8.404;2022-09-30T03:17:50;6.30;99.90
13970;DHT22;7057;49.984;8.404;2022-09-30T03:20:31;6.30;99.90
13970;DHT22;7057;49.984;8.404;2022-09-30T03:23:15;6.30;99.90
13970;DHT22;7057;49.984;8.404;2022-09-30T03:25:52;6.20;99.90
13970;DHT22;7057;49.984;8.404;2022-09-30T03:28:25;6.10;99.90
13970;DHT22;7057;49.984;8.404;2022-09-30T03:31:01;6.10;99.90
13970;DHT22;7057;49.984;8.404;2022-09-30T03:33:37;6.00;99.90
13970;DHT22;7057;49.984;8.404;2022-09-30T03:36:12;6.00;99.90
13970;DHT22;7057;49.984;8.404;2022-09-30T03:38:47;5.90;99.90
13970;DHT22;7057;49.984;8.404;2022-09-30T03:41:21;5.90;99.90
13970;DHT22;7057;49.984;8.404;2022-09-30T03:43:59;5.90;99.90
13970;DHT22;7057;49.984;8.404;2022-09-30T03:46:32;5.90;99.90
13970;DHT22;7057;49.984;8.404;2022-09-30T03:49:03;5.80;99.90
13970;DHT22;7057;49.984;8.404;2022-09-30T03:51:36;5.80;99.90
13970;DHT22;7057;49.984;8.404;2022-09-30T03:54:06;5.80;99.90
13970;DHT22;7057;49.984;8.404;2022-09-30T03:56:35;5.80;99.90
13970;DHT22;7057;49.984;8.404;2022-09-30T03:59:09;5.80;99.90
13970;DHT22;7057;49.984;8.404;2022-09-30T04:01:36;5.80;99.90
13970;DHT22;7057;49.984;8.404;2022-09-30T04:04:04;5.90;99.90
13970;DHT22;7057;49.984;8.404;2022-09-30T04:06:31;6.00;99.90
13970;DHT22;7057;49.984;8.404;2022-09-30T04:08:59;6.10;99.90
13970;DHT22;7057;49.984;8.404;2022-09-30T04:11:26;6.20;99.90
13970;DHT22;7057;49.984;8.404;2022-09-30T04:13:54;6.20;99.90
13970;DHT22;7057;49.984;8.404;2022-09-30T04:16:21;6.20;99.90
13970;DHT22;7057;49.984;8.404;2022-09-30T04:18:49;6.30;99.90
13970;DHT22;7057;49.984;8.404;2022-09-30T04:21:17;6.30;99.90
13970;DHT22;7057;49.984;8.404;2022-09-30T04:23:44;6.30;99.90
13970;DHT22;7057;49.984;8.404;2022-09-30T04:26:14;6.20;99.90
13970;DHT22;7057;49.984;8.404;2022-09-30T04:28:42;6.20;99.90
13970;DHT22;7057;49.984;8.404;2022-09-30T04:31:10;6.20;99.90
13970;DHT22;7057;49.984;8.404;2022-09-30T04:33:39;6.20;99.90
13970;DHT22;7057;49.984;8.404;2022-09-30T04:36:06;6.20;99.90
13970;DHT22;7057;49.984;8.404;2022-09-30T04:38:34;6.20;99.90
13970;DHT22;7057;49.984;8.404;2022-09-30T04:41:02;6.20;99.90
13970;DHT22;7057;49.984;8.404;2022-09-30T04:43:31;6.20;99.90
13970;DHT22;7057;49.984;8.404;2022-09-30T04:45:59;6.20;99.90
13970;DHT22;7057;49.984;8.404;2022-09-30T04:48:26;6.10;99.90
13970;DHT22;7057;49.984;8.404;2022-09-30T04:50:57;6.10;99.90
13970;DHT22;7057;49.984;8.404;2022-09-30T04:53:26;6.10;99.90
13970;DHT22;7057;49.984;8.404;2022-09-30T04:55:57;6.10;99.90
13970;DHT22;7057;49.984;8.404;2022-09-30T04:58:26;6.00;99.90
13970;DHT22;7057;49.984;8.404;2022-09-30T05:01:00;6.10;99.90
13970;DHT22;7057;49.984;8.404;2022-09-30T05:03:28;6.00;99.90
13970;DHT22;7057;49.984;8.404;2022-09-30T05:05:55;6.00;99.90
13970;DHT22;7057;49.984;8.404;2022-09-30T05:08:22;6.00;99.90
13970;DHT22;7057;49.984;8.404;2022-09-30T05:10:54;6.00;99.90
13970;DHT22;7057;49.984;8.404;2022-09-30T05:13:22;6.00;99.90
13970;DHT22;7057;49.984;8.404;2022-09-30T05:15:50;6.00;99.90
13970;DHT22;7057;49.984;8.404;2022-09-30T05:18:19;6.00;99.90
13970;DHT22;7057;49.984;8.404;2022-09-30T05:20:48;6.00;99.90
13970;DHT22;7057;49.984;8.404;2022-09-30T05:23:16;6.00;99.90
13970;DHT22;7057;49.984;8.404;2022-09-30T05:25:44;6.00;99.90
13970;DHT22;7057;49.984;8.404;2022-09-30T05:28:12;5.90;99.90
13970;DHT22;7057;49.984;8.404;2022-09-30T05:30:41;5.80;99.90
13970;DHT22;7057;49.984;8.404;2022-09-30T05:33:09;5.80;99.90
13970;DHT22;7057;49.984;8.404;2022-09-30T05:35:38;5.80;99.90
13970;DHT22;7057;49.984;8.404;2022-09-30T05:38:05;5.80;99.90
13970;DHT22;7057;49.984;8.404;2022-09-30T05:40:33;5.80;99.90
13970;DHT22;7057;49.984;8.404;2022-09-30T05:43:02;5.80;99.90
13970;DHT22;7057;49.984;8.404;2022-09-30T05:45:30;5.80;99.90
13970;DHT22;7057;49.984;8.404;2022-09-30T05:47:57;5.90;99.90
13970;DHT22;7057;49.984;8.404;2022-09-30T05:50:24;5.90;99.90
13970;DHT22;7057;49.984;8.404;2022-09-30T05:52:53;6.00;99.90
13970;DHT22;7057;49.984;8.404;2022-09-30T05:55:22;6.00;99.90
13970;DHT22;7057;49.984;8.404;2022-09-30T05:57:50;6.00;99.90
13970;DHT22;7057;49.984;8.404;2022-09-30T06:00:18;6.00;99.90
13970;DHT22;7057;49.984;8.404;2022-09-30T06:02:50;6.00;99.90
13970;DHT22;7057;49.984;8.404;2022-09-30T06:05:17;6.00;99.90
13970;DHT22;7057;49.984;8.404;2022-09-30T06:07:44;6.10;99.90
13970;DHT22;7057;49.984;8.404;2022-09-30T06:10:13;6.10;99.90
13970;DHT22;7057;49.984;8.404;2022-09-30T06:12:40;6.10;99.90
13970;DHT22;7057;49.984;8.404;2022-09-30T06:15:08;6.20;99.90
13970;DHT22;7057;49.984;8.404;2022-09-30T06:17:35;6.20;99.90
13970;DHT22;7057;49.984;8.404;2022-09-30T06:20:03;6.20;99.90
13970;DHT22;7057;49.984;8.404;2022-09-30T06:22:34;6.30;99.90
13970;DHT22;7057;49.984;8.404;2022-09-30T06:25:03;6.40;99.90
13970;DHT22;7057;49.984;8.404;2022-09-30T06:27:32;6.40;99.90
13970;DHT22;7057;49.984;8.404;2022-09-30T06:29:59;6.40;99.90
13970;DHT22;7057;49.984;8.404;2022-09-30T06:32:27;6.50;99.90
13970;DHT22;7057;49.984;8.404;2022-09-30T06:34:55;6.60;99.90
13970;DHT22;7057;49.984;8.404;2022-09-30T06:37:23;6.70;99.90
13970;DHT22;7057;49.984;8.404;2022-09-30T06:39:50;6.70;99.90
13970;DHT22;7057;49.984;8.404;2022-09-30T06:42:17;6.70;99.90
13970;DHT22;7057;49.984;8.404;2022-09-30T06:44:46;6.70;99.90
13970;DHT22;7057;49.984;8.404;2022-09-30T06:47:13;6.80;99.90
13970;DHT22;7057;49.984;8.404;2022-09-30T06:49:41;6.90;99.90
13970;DHT22;7057;49.984;8.404;2022-09-30T06:52:08;7.00;99.90
13970;DHT22;7057;49.984;8.404;2022-09-30T06:54:38;7.10;99.90
13970;DHT22;7057;49.984;8.404;2022-09-30T06:57:08;7.20;99.90
13970;DHT22;7057;49.984;8.404;2022-09-30T06:59:35;7.30;99.90
13970;DHT22;7057;49.984;8.404;2022-09-30T07:02:04;7.50;99.90
13970;DHT22;7057;49.984;8.404;2022-09-30T07:04:31;7.60;99.90
13970;DHT22;7057;49.984;8.404;2022-09-30T07:06:58;7.60;99.90
13970;DHT22;7057;49.984;8.404;2022-09-30T07:09:25;7.70;99.90
13970;DHT22;7057;49.984;8.404;2022-09-30T07:11:53;7.80;99.90
13970;DHT22;7057;49.984;8.404;2022-09-30T07:14:20;8.00;99.90
13970;DHT22;7057;49.984;8.404;2022-09-30T07:16:48;8.20;99.90
13970;DHT22;7057;49.984;8.404;2022-09-30T07:19:18;8.30;99.90
13970;DHT22;7057;49.984;8.404;2022-09-30T07:21:47;8.50;99.90
13970;DHT22;7057;49.984;8.404;2022-09-30T07:24:16;8.60;99.90
13970;DHT22;7057;49.984;8.404;2022-09-30T07:26:43;8.70;99.90
13970;DHT22;7057;49.984;8.404;2022-09-30T07:29:11;8.80;99.90
13970;DHT22;7057;49.984;8.404;2022-09-30T07:31:39;8.90;99.90
13970;DHT22;7057;49.984;8.404;2022-09-30T07:34:07;9.00;99.90
13970;DHT22;7057;49.984;8.404;2022-09-30T07:36:38;9.10;99.90
13970;DHT22;7057;49.984;8.404;2022-09-30T07:39:08;9.20;99.90
13970;DHT22;7057;49.984;8.404;2022-09-30T07:41:37;9.30;99.90
13970;DHT22;7057;49.984;8.404;2022-09-30T07:44:07;9.30;99.90
13970;DHT22;7057;49.984;8.404;2022-09-30T07:46:35;9.40;99.90
13970;DHT22;7057;49.984;8.404;2022-09-30T07:49:03;9.40;99.90
13970;DHT22;7057;49.984;8.404;2022-09-30T07:51:36;9.40;99.90
13970;DHT22;7057;49.984;8.404;2022-09-30T07:54:06;9.50;99.90
13970;DHT22;7057;49.984;8.404;2022-09-30T07:56:34;9.50;99.90
13970;DHT22;7057;49.984;8.404;2022-09-30T07:59:04;9.50;99.90
13970;DHT22;7057;49.984;8.404;2022-09-30T08:01:32;9.50;99.90
13970;DHT22;7057;49.984;8.404;2022-09-30T08:04:03;9.70;99.90
13970;DHT22;7057;49.984;8.404;2022-09-30T08:06:31;9.70;99.90
13970;DHT22;7057;49.984;8.404;2022-09-30T08:09:04;9.80;99.90
13970;DHT22;7057;49.984;8.404;2022-09-30T08:11:32;9.90;99.90
13970;DHT22;7057;49.984;8.404;2022-09-30T08:14:00;10.00;99.90
13970;DHT22;7057;49.984;8.404;2022-09-30T08:16:27;10.20;99.90
13970;DHT22;7057;49.984;8.404;2022-09-30T08:18:54;10.40;99.90
13970;DHT22;7057;49.984;8.404;2022-09-30T08:21:22;10.60;99.90
13970;DHT22;7057;49.984;8.404;2022-09-30T08:23:50;10.70;99.90
13970;DHT22;7057;49.984;8.404;2022-09-30T08:26:19;10.70;99.90
13970;DHT22;7057;49.984;8.404;2022-09-30T08:28:46;10.70;99.90
13970;DHT22;7057;49.984;8.404;2022-09-30T08:31:16;10.80;99.90
13970;DHT22;7057;49.984;8.404;2022-09-30T08:33:43;10.90;99.90
13970;DHT22;7057;49.984;8.404;2022-09-30T08:36:12;10.80;99.90
13970;DHT22;7057;49.984;8.404;2022-09-30T08:38:40;10.90;99.90
13970;DHT22;7057;49.984;8.404;2022-09-30T08:41:29;11.10;99.90
13970;DHT22;7057;49.984;8.404;2022-09-30T08:44:07;11.30;99.90
13970;DHT22;7057;49.984;8.404;2022-09-30T08:46:43;11.40;99.90
13970;DHT22;7057;49.984;8.404;2022-09-30T08:49:28;11.50;99.90
13970;DHT22;7057;49.984;8.404;2022-09-30T08:52:00;11.70;99.90
13970;DHT22;7057;49.984;8.404;2022-09-30T08:54:31;11.80;99.90
13970;DHT22;7057;49.984;8.404;2022-09-30T08:57:02;11.90;99.90
13970;DHT22;7057;49.984;8.404;2022-09-30T08:59:33;11.90;99.90
13970;DHT22;7057;49.984;8.404;2022-09-30T09:02:14;11.90;99.90
13970;DHT22;7057;49.984;8.404;2022-09-30T09:04:43;12.00;99.90
13970;DHT22;7057;49.984;8.404;2022-09-30T09:07:20;12.20;99.90
13970;DHT22;7057;49.984;8.404;2022-09-30T09:09:59;12.30;99.90
13970;DHT22;7057;49.984;8.404;2022-09-30T09:12:36;12.50;99.90
13970;DHT22;7057;49.984;8.404;2022-09-30T09:15:18;12.60;99.90
13970;DHT22;7057;49.984;8.404;2022-09-30T09:18:04;12.60;99.90
13970;DHT22;7057;49.984;8.404;2022-09-30T09:20:38;12.80;99.90
13970;DHT22;7057;49.984;8.404;2022-09-30T09:23:10;12.80;99.90
13970;DHT22;7057;49.984;8.404;2022-09-30T09:25:38;12.70;99.90
13970;DHT22;7057;49.984;8.404;2022-09-30T09:28:16;12.60;99.90
13970;DHT22;7057;49.984;8.404;2022-09-30T09:30:53;12.70;99.90
13970;DHT22;7057;49.984;8.404;2022-09-30T09:33:27;12.90;99.90
13970;DHT22;7057;49.984;8.404;2022-09-30T09:36:02;13.00;99.90
13970;DHT22;7057;49.984;8.404;2022-09-30T09:38:38;13.20;99.90
13970;DHT22;7057;49.984;8.404;2022-09-30T09:41:16;13.30;99.90
13970;DHT22;7057;49.984;8.404;2022-09-30T09:43:52;13.40;99.90
13970;DHT22;7057;49.984;8.404;2022-09-30T09:46:25;13.60;99.90
13970;DHT22;7057;49.984;8.404;2022-09-30T09:52:30;13.70;99.90
13970;DHT22;7057;49.984;8.404;2022-09-30T09:55:02;13.80;99.90
13970;DHT22;7057;49.984;8.404;2022-09-30T09:57:29;14.00;99.90
13970;DHT22;7057;49.984;8.404;2022-09-30T10:00:00;14.10;99.90
13970;DHT22;7057;49.984;8.404;2022-09-30T10:02:59;14.10;99.90
13970;DHT22;7057;49.984;8.404;2022-09-30T10:05:27;14.20;99.90
13970;DHT22;7057;49.984;8.404;2022-09-30T10:08:12;14.30;99.90
13970;DHT22;7057;49.984;8.404;2022-09-30T10:10:44;14.40;99.90
13970;DHT22;7057;49.984;8.404;2022-09-30T10:13:15;14.30;99.90
13970;DHT22;7057;49.984;8.404;2022-09-30T10:15:45;14.20;99.90
13970;DHT22;7057;49.984;8.404;2022-09-30T10:18:18;14.10;99.90
13970;DHT22;7057;49.984;8.404;2022-09-30T10:20:51;14.10;99.90
13970;DHT22;7057;49.984;8.404;2022-09-30T10:23:20;14.20;99.90
13970;DHT22;7057;49.984;8.404;2022-09-30T10:25:59;14.40;99.90
13970;DHT22;7057;49.984;8.404;2022-09-30T10:28:30;14.50;99.90
13970;DHT22;7057;49.984;8.404;2022-09-30T10:31:02;14.70;99.90
13970;DHT22;7057;49.984;8.404;2022-09-30T10:33:35;14.90;99.90
13970;DHT22;7057;49.984;8.404;2022-09-30T10:36:10;14.90;99.90
13970;DHT22;7057;49.984;8.404;2022-09-30T10:38:47;15.10;99.90
13970;DHT22;7057;49.984;8.404;2022-09-30T10:41:21;15.20;99.90
13970;DHT22;7057;49.984;8.404;2022-09-30T10:43:52;15.40;99.90
13970;DHT22;7057;49.984;8.404;2022-09-30T10:46:24;15.50;99.90
13970;DHT22;7057;49.984;8.404;2022-09-30T10:48:53;15.50;99.90
13970;DHT22;7057;49.984;8.404;2022-09-30T10:51:30;15.60;99.90
13970;DHT22;7057;49.984;8.404;2022-09-30T10:53:59;15.40;99.90
13970;DHT22;7057;49.984;8.404;2022-09-30T10:56:39;15.50;99.90
13970;DHT22;7057;49.984;8.404;2022-09-30T10:59:29;15.50;99.90
13970;DHT22;7057;49.984;8.404;2022-09-30T11:02:04;15.30;99.90
13970;DHT22;7057;49.984;8.404;2022-09-30T11:04:39;15.50;99.90
13970;DHT22;7057;49.984;8.404;2022-09-30T11:07:14;15.40;99.90
13970;DHT22;7057;49.984;8.404;2022-09-30T11:09:48;15.50;99.90
13970;DHT22;7057;49.984;8.404;2022-09-30T11:12:24;15.40;99.90
13970;DHT22;7057;49.984;8.404;2022-09-30T11:15:02;15.60;99.90
13970;DHT22;7057;49.984;8.404;2022-09-30T11:17:39;15.70;99.90
13970;DHT22;7057;49.984;8.404;2022-09-30T11:20:18;15.80;99.90
13970;DHT22;7057;49.984;8.404;2022-09-30T11:22:52;15.40;99.90
13970;DHT22;7057;49.984;8.404;2022-09-30T11:25:26;15.50;99.90
13970;DHT22;7057;49.984;8.404;2022-09-30T11:30:55;15.70;99.90
13970;DHT22;7057;49.984;8.404;2022-09-30T11:33:51;15.90;99.90
13970;DHT22;7057;49.984;8.404;2022-09-30T11:36:27;16.20;99.90
13970;DHT22;7057;49.984;8.404;2022-09-30T11:39:19;16.20;99.90
13970;DHT22;7057;49.984;8.404;2022-09-30T11:41:56;16.00;99.90
13970;DHT22;7057;49.984;8.404;2022-09-30T11:44:30;16.20;99.90
13970;DHT22;7057;49.984;8.404;2022-09-30T11:47:18;16.10;99.90
13970;DHT22;7057;49.984;8.404;2022-09-30T11:50:01;16.10;99.90
13970;DHT22;7057;49.984;8.404;2022-09-30T11:52:35;16.00;99.90
13970;DHT22;7057;49.984;8.404;2022-09-30T11:55:20;16.20;99.90
13970;DHT22;7057;49.984;8.404;2022-09-30T11:57:52;16.30;99.90
13970;DHT22;7057;49.984;8.404;2022-09-30T12:00:21;16.30;99.90
13970;DHT22;7057;49.984;8.404;2022-09-30T12:02:50;16.20;99.90
13970;DHT22;7057;49.984;8.404;2022-09-30T12:05:23;16.40;99.90
13970;DHT22;7057;49.984;8.404;2022-09-30T12:07:57;16.60;99.90
13970;DHT22;7057;49.984;8.404;2022-09-30T12:10:31;16.80;99.90
13970;DHT22;7057;49.984;8.404;2022-09-30T12:13:05;16.60;99.90
13970;DHT22;7057;49.984;8.404;2022-09-30T12:15:39;16.50;99.90
13970;DHT22;7057;49.984;8.404;2022-09-30T12:18:11;16.70;99.90
13970;DHT22;7057;49.984;8.404;2022-09-30T12:20:46;16.60;99.90
13970;DHT22;7057;49.984;8.404;2022-09-30T12:23:18;16.20;99.90
13970;DHT22;7057;49.984;8.404;2022-09-30T12:25:49;16.20;99.90
13970;DHT22;7057;49.984;8.404;2022-09-30T12:28:25;16.20;99.90
13970;DHT22;7057;49.984;8.404;2022-09-30T12:31:33;16.40;99.90
13970;DHT22;7057;49.984;8.404;2022-09-30T12:34:11;16.70;99.90
13970;DHT22;7057;49.984;8.404;2022-09-30T12:36:59;16.60;99.90
13970;DHT22;7057;49.984;8.404;2022-09-30T12:39:44;16.80;99.90
13970;DHT22;7057;49.984;8.404;2022-09-30T12:42:44;16.90;99.90
13970;DHT22;7057;49.984;8.404;2022-09-30T12:45:35;16.90;99.90
13970;DHT22;7057;49.984;8.404;2022-09-30T12:48:05;16.90;99.90
13970;DHT22;7057;49.984;8.404;2022-09-30T12:50:40;17.10;99.90
13970;DHT22;7057;49.984;8.404;2022-09-30T12:53:14;17.40;99.90
13970;DHT22;7057;49.984;8.404;2022-09-30T12:55:42;17.40;99.90
13970;DHT22;7057;49.984;8.404;2022-09-30T12:58:19;17.40;99.90
13970;DHT22;7057;49.984;8.404;2022-09-30T13:01:03;17.30;99.90
13970;DHT22;7057;49.984;8.404;2022-09-30T13:03:45;17.10;99.90
13970;DHT22;7057;49.984;8.404;2022-09-30T13:06:15;17.00;99.90
13970;DHT22;7057;49.984;8.404;2022-09-30T13:11:39;17.30;99.90
13970;DHT22;7057;49.984;8.404;2022-09-30T13:14:29;17.10;99.90
13970;DHT22;7057;49.984;8.404;2022-09-30T13:17:22;17.10;99.90
13970;DHT22;7057;49.984;8.404;2022-09-30T13:19:52;17.30;99.90
13970;DHT22;7057;49.984;8.404;2022-09-30T13:22:41;17.30;99.90
13970;DHT22;7057;49.984;8.404;2022-09-30T13:25:14;17.30;99.90
13970;DHT22;7057;49.984;8.404;2022-09-30T13:27:44;17.40;99.90
13970;DHT22;7057;49.984;8.404;2022-09-30T13:30:31;17.40;99.90
13970;DHT22;7057;49.984;8.404;2022-09-30T13:36:25;17.30;99.90
13970;DHT22;7057;49.984;8.404;2022-09-30T13:39:18;17.20;99.90
13970;DHT22;7057;49.984;8.404;2022-09-30T13:41:56;17.30;99.90
13970;DHT22;7057;49.984;8.404;2022-09-30T13:44:30;17.40;99.90
13970;DHT22;7057;49.984;8.404;2022-09-30T13:47:01;17.40;99.90
13970;DHT22;7057;49.984;8.404;2022-09-30T13:49:40;17.00;99.90
13970;DHT22;7057;49.984;8.404;2022-09-30T13:52:17;17.00;99.90
13970;DHT22;7057;49.984;8.404;2022-09-30T13:54:46;17.10;99.90
13970;DHT22;7057;49.984;8.404;2022-09-30T13:57:19;17.10;99.90
13970;DHT22;7057;49.984;8.404;2022-09-30T14:00:02;17.00;99.90
13970;DHT22;7057;49.984;8.404;2022-09-30T14:05:36;17.40;99.90
13970;DHT22;7057;49.984;8.404;2022-09-30T14:08:19;17.40;99.90
13970;DHT22;7057;49.984;8.404;2022-09-30T14:11:04;17.50;99.90
13970;DHT22;7057;49.984;8.404;2022-09-30T14:13:45;17.30;99.90
13970;DHT22;7057;49.984;8.404;2022-09-30T14:16:39;17.40;99.90
13970;DHT22;7057;49.984;8.404;2022-09-30T14:22:08;17.60;99.90
13970;DHT22;7057;49.984;8.404;2022-09-30T14:24:37;17.60;99.90
13970;DHT22;7057;49.984;8.404;2022-09-30T14:27:31;17.60;99.90
13970;DHT22;7057;49.984;8.404;2022-09-30T14:30:08;17.30;99.90
13970;DHT22;7057;49.984;8.404;2022-09-30T14:32:42;17.10;99.90
13970;DHT22;7057;49.984;8.404;2022-09-30T14:35:14;17.10;99.90
13970;DHT22;7057;49.984;8.404;2022-09-30T14:37:45;16.80;99.90
13970;DHT22;7057;49.984;8.404;2022-09-30T14:40:17;16.80;99.90
13970;DHT22;7057;49.984;8.404;2022-09-30T14:42:46;17.10;99.90
13970;DHT22;7057;49.984;8.404;2022-09-30T14:45:19;17.30;99.90
13970;DHT22;7057;49.984;8.404;2022-09-30T14:47:49;17.40;99.90
13970;DHT22;7057;49.984;8.404;2022-09-30T14:50:20;17.50;99.90
13970;DHT22;7057;49.984;8.404;2022-09-30T14:52:49;17.60;99.90
13970;DHT22;7057;49.984;8.404;2022-09-30T14:55:26;17.70;99.90
13970;DHT22;7057;49.984;8.404;2022-09-30T14:58:17;17.80;99.90
13970;DHT22;7057;49.984;8.404;2022-09-30T15:00:49;17.80;99.90
13970;DHT22;7057;49.984;8.404;2022-09-30T15:03:22;17.80;99.90
13970;DHT22;7057;49.984;8.404;2022-09-30T15:05:49;17.70;99.90
13970;DHT22;7057;49.984;8.404;2022-09-30T15:08:18;17.50;99.90
13970;DHT22;7057;49.984;8.404;2022-09-30T15:10:47;17.50;99.90
13970;DHT22;7057;49.984;8.404;2022-09-30T15:13:14;17.40;99.90
13970;DHT22;7057;49.984;8.404;2022-09-30T15:15:43;17.60;99.90
13970;DHT22;7057;49.984;8.404;2022-09-30T15:18:42;17.40;99.90
13970;DHT22;7057;49.984;8.404;2022-09-30T15:21:11;17.40;99.90
13970;DHT22;7057;49.984;8.404;2022-09-30T15:23:41;17.50;99.90
13970;DHT22;7057;49.984;8.404;2022-09-30T15:26:11;17.60;99.90
13970;DHT22;7057;49.984;8.404;2022-09-30T15:28:39;17.50;99.90
13970;DHT22;7057;49.984;8.404;2022-09-30T15:31:06;17.40;99.90
13970;DHT22;7057;49.984;8.404;2022-09-30T15:33:41;17.40;99.90
13970;DHT22;7057;49.984;8.404;2022-09-30T15:36:14;17.40;99.90
13970;DHT22;7057;49.984;8.404;2022-09-30T15:38:46;17.40;99.90
13970;DHT22;7057;49.984;8.404;2022-09-30T15:41:15;17.50;99.90
13970;DHT22;7057;49.984;8.404;2022-09-30T15:43:44;17.40;99.90
13970;DHT22;7057;49.984;8.404;2022-09-30T15:46:18;17.40;99.90
13970;DHT22;7057;49.984;8.404;2022-09-30T15:48:48;17.40;99.90
13970;DHT22;7057;49.984;8.404;2022-09-30T15:51:36;17.40;99.90
13970;DHT22;7057;49.984;8.404;2022-09-30T15:54:30;17.40;99.90
13970;DHT22;7057;49.984;8.404;2022-09-30T15:57:14;17.30;99.90
13970;DHT22;7057;49.984;8.404;2022-09-30T15:59:57;17.40;99.90
13970;DHT22;7057;49.984;8.404;2022-09-30T16:02:26;17.30;99.90
13970;DHT22;7057;49.984;8.404;2022-09-30T16:04:55;17.20;99.90
13970;DHT22;7057;49.984;8.404;2022-09-30T16:07:23;17.20;99.90
13970;DHT22;7057;49.984;8.404;2022-09-30T16:09:53;17.20;99.90
13970;DHT22;7057;49.984;8.404;2022-09-30T16:12:24;17.20;99.90
13970;DHT22;7057;49.984;8.404;2022-09-30T16:14:54;17.10;99.90
13970;DHT22;7057;49.984;8.404;2022-09-30T16:17:26;17.00;99.90
13970;DHT22;7057;49.984;8.404;2022-09-30T16:19:58;17.00;99.90
13970;DHT22;7057;49.984;8.404;2022-09-30T16:22:47;16.80;99.90
13970;DHT22;7057;49.984;8.404;2022-09-30T16:25:19;16.70;99.90
13970;DHT22;7057;49.984;8.404;2022-09-30T16:27:46;16.70;99.90
13970;DHT22;7057;49.984;8.404;2022-09-30T16:30:15;16.60;99.90
13970;DHT22;7057;49.984;8.404;2022-09-30T16:32:45;16.50;99.90
13970;DHT22;7057;49.984;8.404;2022-09-30T16:35:17;16.30;99.90
13970;DHT22;7057;49.984;8.404;2022-09-30T16:37:45;16.10;99.90
13970;DHT22;7057;49.984;8.404;2022-09-30T16:40:21;16.00;99.90
13970;DHT22;7057;49.984;8.404;2022-09-30T16:42:49;15.80;99.90
13970;DHT22;7057;49.984;8.404;2022-09-30T16:45:17;15.80;99.90
13970;DHT22;7057;49.984;8.404;2022-09-30T16:47:44;15.70;99.90
13970;DHT22;7057;49.984;8.404;2022-09-30T16:50:27;15.50;99.90